Terminal Aerodrome Forecast
Issued by NWS

Home | Current Version | Previous Version | Text Only | Print | Product List | Glossary On
Versions: 1 2 3 4 5 6 7 8 9 10 11 12 13
000
FTUS46 KSEW 201700 RRA
TAFBFI
TAF
KBFI 201746Z 2018/2118 17007KT P6SM BKN025 BKN060
     FM202000 23006KT P6SM FEW040 SCT060
     FM210700 17005KT P6SM BKN050
     FM211000 18005KT P6SM OVC020=

USA.gov is the U.S. government's official web portal to all federal, state and local government web resources and services.